Time;durP1;ratioP1;P1;durP2;ratioP2;P2;SDS_P1;SDS_P2;PMS_P1;PMS_P2;Temp;Humidity;BMP_temperature;BMP_pressure;BME280_temperature;BME280_humidity;BME280_pressure;Samples;Min_cycle;Max_cycle;Signal;HPM_P1;HPM_P2
2023/12/19 00:01:50;;;;;;;41.60;14.80;;;;;;;;;;4130448;28;20043;-81
2023/12/19 00:03:51;;;;;;;39.58;14.50;;;;;;;;;;4127628;28;20038;-81
2023/12/19 00:05:52;;;;;;;41.47;14.02;;;;;;;;;;4126835;28;20080;-81
2023/12/19 00:07:53;;;;;;;36.70;13.90;;;;;;;;;;4126402;28;20047;-81
2023/12/19 00:09:56;;;;;;;37.22;13.68;;;;;;;;;;4126069;28;20078;-81
2023/12/19 00:11:57;;;;;;;36.65;14.40;;;;;;;;;;4126579;28;20051;-81
2023/12/19 00:13:58;;;;;;;42.30;16.33;;;;;;;;;;4126152;28;20113;-81
2023/12/19 00:15:59;;;;;;;35.08;13.68;;;;;;;;;;4119376;28;20062;-81
2023/12/19 00:18:00;;;;;;;39.22;13.38;;;;;;;;;;4117435;28;20050;-81
2023/12/19 00:20:01;;;;;;;32.25;13.10;;;;;;;;;;4131985;28;20046;-81
2023/12/19 00:22:02;;;;;;;35.83;12.70;;;;;;;;;;4101286;28;20059;-81
2023/12/19 00:24:03;;;;;;;31.60;11.88;;;;;;;;;;4101182;28;20051;-81
2023/12/19 00:26:05;;;;;;;37.50;12.30;;;;;;;;;;4115651;28;20480;-80
2023/12/19 00:28:06;;;;;;;33.72;12.90;;;;;;;;;;4115281;28;20484;-81
2023/12/19 00:30:07;;;;;;;31.13;12.57;;;;;;;;;;4117328;28;20057;-80
2023/12/19 00:32:08;;;;;;;28.48;11.13;;;;;;;;;;4116000;28;20349;-81
2023/12/19 00:34:10;;;;;;;35.17;13.00;;;;;;;;;;4116932;28;20460;-81
2023/12/19 00:36:17;;;;;;;28.80;12.02;;;;;;;;;;4116617;28;20483;-80
2023/12/19 00:38:19;;;;;;;26.35;11.15;;;;;;;;;;4116008;28;20057;-80
2023/12/19 00:40:21;;;;;;;30.17;11.88;;;;;;;;;;4115517;28;20043;-80
2023/12/19 00:42:22;;;;;;;34.58;12.15;;;;;;;;;;4116780;28;20487;-81
2023/12/19 00:44:23;;;;;;;29.88;11.15;;;;;;;;;;4120849;28;20042;-81
2023/12/19 00:46:24;;;;;;;31.77;11.57;;;;;;;;;;4132587;28;20505;-81
2023/12/19 00:48:25;;;;;;;28.77;11.60;;;;;;;;;;4132736;28;20061;-81
2023/12/19 00:50:26;;;;;;;27.95;11.23;;;;;;;;;;4132830;28;20054;-81
2023/12/19 00:52:29;;;;;;;28.05;11.15;;;;;;;;;;4130131;28;20047;-81
2023/12/19 00:54:30;;;;;;;30.92;11.60;;;;;;;;;;4116743;28;20057;-81
2023/12/19 00:56:32;;;;;;;27.08;11.80;;;;;;;;;;4116446;28;20503;-81
2023/12/19 00:58:35;;;;;;;34.85;11.88;;;;;;;;;;4114298;28;20516;-81
2023/12/19 01:00:37;;;;;;;29.15;12.50;;;;;;;;;;4116365;28;20162;-81
2023/12/19 01:02:38;;;;;;;28.15;12.10;;;;;;;;;;4115832;28;20061;-81
2023/12/19 01:04:39;;;;;;;25.17;9.57;;;;;;;;;;4116259;28;20043;-81
2023/12/19 01:06:40;;;;;;;30.77;10.68;;;;;;;;;;4123153;28;20474;-80
2023/12/19 01:08:42;;;;;;;28.90;11.50;;;;;;;;;;4132424;28;20054;-81
2023/12/19 01:10:44;;;;;;;32.80;11.45;;;;;;;;;;4132480;28;20133;-81
2023/12/19 01:12:45;;;;;;;30.40;10.98;;;;;;;;;;4132391;28;20510;-81
2023/12/19 01:14:48;;;;;;;33.03;12.05;;;;;;;;;;4132401;28;20426;-81
2023/12/19 01:16:49;;;;;;;27.75;11.13;;;;;;;;;;4132137;28;20066;-81
2023/12/19 01:18:50;;;;;;;29.90;10.90;;;;;;;;;;4130632;28;20042;-81
2023/12/19 01:20:51;;;;;;;24.85;10.35;;;;;;;;;;4124928;28;20503;-81
2023/12/19 01:22:52;;;;;;;28.80;11.73;;;;;;;;;;4116284;28;20042;-81
2023/12/19 01:24:54;;;;;;;29.48;11.93;;;;;;;;;;4116095;28;20046;-81
2023/12/19 01:26:55;;;;;;;27.35;12.02;;;;;;;;;;4116084;28;20043;-81
2023/12/19 01:28:56;;;;;;;22.55;9.20;;;;;;;;;;4115990;28;20484;-81
2023/12/19 01:30:57;;;;;;;25.65;10.35;;;;;;;;;;4119631;28;20050;-81
2023/12/19 01:32:59;;;;;;;28.35;11.00;;;;;;;;;;4116278;28;20388;-81
2023/12/19 01:35:00;;;;;;;31.27;10.88;;;;;;;;;;4116095;28;20547;-81
2023/12/19 01:37:02;;;;;;;22.63;9.55;;;;;;;;;;4110935;28;20110;-81
2023/12/19 01:39:03;;;;;;;25.70;11.48;;;;;;;;;;4099957;28;20401;-81
2023/12/19 01:41:04;;;;;;;25.80;10.32;;;;;;;;;;4100180;28;20428;-81
2023/12/19 01:43:15;;;;;;;25.42;10.32;;;;;;;;;;4112215;28;20089;-81
2023/12/19 01:45:19;;;;;;;25.23;10.45;;;;;;;;;;4116303;28;20053;-81
2023/12/19 01:47:20;;;;;;;28.77;10.85;;;;;;;;;;4118134;28;20059;-81
2023/12/19 01:49:22;;;;;;;27.00;11.00;;;;;;;;;;4117787;28;20129;-81
2023/12/19 01:51:23;;;;;;;23.33;9.52;;;;;;;;;;4134433;28;20116;-81
2023/12/19 01:53:25;;;;;;;24.45;9.93;;;;;;;;;;4119487;28;20392;-81
2023/12/19 01:55:27;;;;;;;30.92;10.38;;;;;;;;;;4119169;28;20101;-80
2023/12/19 01:57:28;;;;;;;23.13;9.48;;;;;;;;;;4119266;28;20535;-81
2023/12/19 01:59:29;;;;;;;20.52;9.18;;;;;;;;;;4119287;28;20113;-81
2023/12/19 02:01:30;;;;;;;21.70;9.68;;;;;;;;;;4119078;28;20487;-81
2023/12/19 02:03:34;;;;;;;21.05;9.40;;;;;;;;;;4119469;28;20048;-81
2023/12/19 02:05:38;;;;;;;23.05;10.45;;;;;;;;;;4119407;28;20404;-81
2023/12/19 02:07:39;;;;;;;24.23;9.55;;;;;;;;;;4119013;28;20097;-81
2023/12/19 02:09:41;;;;;;;20.52;9.05;;;;;;;;;;4123215;28;20042;-81
2023/12/19 02:11:43;;;;;;;19.75;8.60;;;;;;;;;;4134626;28;20141;-81
2023/12/19 02:13:45;;;;;;;19.90;8.85;;;;;;;;;;4135182;28;20042;-81
2023/12/19 02:15:47;;;;;;;20.27;8.15;;;;;;;;;;4134785;28;20450;-81
2023/12/19 02:17:48;;;;;;;20.05;8.38;;;;;;;;;;4133695;28;20062;-81
2023/12/19 02:19:49;;;;;;;16.42;8.23;;;;;;;;;;4134896;28;20487;-81
2023/12/19 02:21:50;;;;;;;22.40;8.50;;;;;;;;;;4133611;28;20050;-81
2023/12/19 02:23:51;;;;;;;19.38;8.52;;;;;;;;;;4128276;28;20592;-80
2023/12/19 02:25:53;;;;;;;16.52;7.50;;;;;;;;;;4117958;28;20510;-81
2023/12/19 02:27:57;;;;;;;15.20;6.88;;;;;;;;;;4117248;28;20487;-81
2023/12/19 02:29:58;;;;;;;19.98;8.75;;;;;;;;;;4118344;28;20050;-81
2023/12/19 02:31:59;;;;;;;17.55;8.75;;;;;;;;;;4118793;28;20511;-81
2023/12/19 02:34:00;;;;;;;15.05;7.05;;;;;;;;;;4118654;28;20491;-81
2023/12/19 02:36:02;;;;;;;19.45;7.82;;;;;;;;;;4118854;28;20121;-81
2023/12/19 02:38:03;;;;;;;16.42;7.53;;;;;;;;;;4119249;28;20045;-81
2023/12/19 02:40:04;;;;;;;16.50;7.50;;;;;;;;;;4118636;28;20047;-81
2023/12/19 02:42:05;;;;;;;17.85;7.88;;;;;;;;;;4117405;28;20176;-81
2023/12/19 02:44:06;;;;;;;17.17;7.90;;;;;;;;;;4118501;28;20540;-81
2023/12/19 02:46:08;;;;;;;16.80;7.28;;;;;;;;;;4117674;28;20468;-81
2023/12/19 02:48:09;;;;;;;16.10;6.95;;;;;;;;;;4118596;28;20054;-81
2023/12/19 02:50:10;;;;;;;21.63;8.52;;;;;;;;;;4118501;28;20560;-81
2023/12/19 02:52:11;;;;;;;18.33;7.75;;;;;;;;;;4116466;28;20471;-80
2023/12/19 02:54:12;;;;;;;15.70;8.00;;;;;;;;;;4134747;28;20474;-81
2023/12/19 02:56:13;;;;;;;16.88;7.97;;;;;;;;;;4133599;28;20542;-81
2023/12/19 02:58:14;;;;;;;14.00;7.25;;;;;;;;;;4124270;28;20038;-81
2023/12/19 03:00:15;;;;;;;16.80;7.13;;;;;;;;;;4118003;28;20046;-81
2023/12/19 03:02:17;;;;;;;14.45;6.95;;;;;;;;;;4118043;28;20067;-81
2023/12/19 03:04:18;;;;;;;16.67;7.10;;;;;;;;;;4118265;28;20081;-81
2023/12/19 03:06:20;;;;;;;14.43;6.43;;;;;;;;;;4117900;28;20491;-81
2023/12/19 03:08:23;;;;;;;16.60;6.45;;;;;;;;;;4132930;28;20050;-81
2023/12/19 03:10:24;;;;;;;16.45;6.90;;;;;;;;;;4117019;28;20495;-81
2023/12/19 03:12:25;;;;;;;15.77;7.20;;;;;;;;;;4118141;28;20511;-81
2023/12/19 03:14:26;;;;;;;13.23;6.35;;;;;;;;;;4118363;28;20055;-81
2023/12/19 03:16:27;;;;;;;17.05;6.60;;;;;;;;;;4117147;28;20519;-80
2023/12/19 03:18:28;;;;;;;14.45;6.82;;;;;;;;;;4101526;28;20048;-81
2023/12/19 03:20:29;;;;;;;15.50;7.25;;;;;;;;;;4102651;28;20609;-80
2023/12/19 03:22:31;;;;;;;13.18;6.35;;;;;;;;;;4149215;28;20395;-80
2023/12/19 03:24:32;;;;;;;12.00;6.20;;;;;;;;;;4134046;28;20054;-81
2023/12/19 03:26:34;;;;;;;16.90;7.85;;;;;;;;;;4123359;28;20100;-81
2023/12/19 03:28:37;;;;;;;13.90;6.47;;;;;;;;;;4117980;28;20046;-81
2023/12/19 03:30:38;;;;;;;16.10;6.97;;;;;;;;;;4116344;28;20474;-81
2023/12/19 03:32:39;;;;;;;14.82;6.78;;;;;;;;;;4116932;28;20487;-81
2023/12/19 03:34:40;;;;;;;17.60;6.55;;;;;;;;;;4118161;28;20039;-81
2023/12/19 03:36:41;;;;;;;12.63;6.07;;;;;;;;;;4133928;28;20057;-81
2023/12/19 03:38:43;;;;;;;15.48;7.80;;;;;;;;;;4134079;28;20042;-81
2023/12/19 03:40:44;;;;;;;14.57;6.22;;;;;;;;;;4117413;28;20451;-81
2023/12/19 03:42:46;;;;;;;14.95;6.72;;;;;;;;;;4116825;28;20113;-81
2023/12/19 03:44:47;;;;;;;15.13;6.50;;;;;;;;;;4117479;28;20042;-81
2023/12/19 03:46:48;;;;;;;16.17;6.55;;;;;;;;;;4117791;28;20057;-81
2023/12/19 03:48:49;;;;;;;16.50;7.35;;;;;;;;;;4117678;28;20491;-81
2023/12/19 03:50:51;;;;;;;12.13;6.05;;;;;;;;;;4119141;28;20484;-81
2023/12/19 03:52:53;;;;;;;15.77;7.22;;;;;;;;;;4133377;28;20126;-81
2023/12/19 03:54:54;;;;;;;15.15;6.13;;;;;;;;;;4133595;28;20483;-81
2023/12/19 03:56:55;;;;;;;11.85;6.00;;;;;;;;;;4133751;28;20061;-81
2023/12/19 03:58:56;;;;;;;13.43;6.22;;;;;;;;;;4128056;28;20101;-81
2023/12/19 04:00:57;;;;;;;12.43;5.82;;;;;;;;;;4117574;28;20043;-81
2023/12/19 04:02:59;;;;;;;11.93;5.90;;;;;;;;;;4117218;28;20055;-81
2023/12/19 04:05:00;;;;;;;10.40;5.65;;;;;;;;;;4117262;28;20903;-81
2023/12/19 04:07:01;;;;;;;13.27;5.47;;;;;;;;;;4118464;28;20735;-81
2023/12/19 04:09:02;;;;;;;12.55;5.72;;;;;;;;;;4131593;28;20046;-81
2023/12/19 04:11:03;;;;;;;10.23;5.30;;;;;;;;;;4133423;28;20097;-81
2023/12/19 04:13:04;;;;;;;11.90;5.68;;;;;;;;;;4133528;28;20472;-81
2023/12/19 04:15:05;;;;;;;11.95;5.43;;;;;;;;;;4133023;28;20484;-81
2023/12/19 04:17:07;;;;;;;10.27;5.30;;;;;;;;;;4148007;28;20124;-81
2023/12/19 04:19:08;;;;;;;11.52;5.45;;;;;;;;;;4133514;28;20062;-81
2023/12/19 04:21:09;;;;;;;11.27;4.95;;;;;;;;;;4133149;28;20107;-80
2023/12/19 04:23:12;;;;;;;9.98;5.35;;;;;;;;;;4131158;28;20046;-81
2023/12/19 04:25:13;;;;;;;7.30;3.88;;;;;;;;;;4130386;28;20514;-80
2023/12/19 04:27:14;;;;;;;7.43;4.00;;;;;;;;;;4116859;28;20055;-81
2023/12/19 04:29:15;;;;;;;8.93;4.35;;;;;;;;;;4117011;28;20042;-80
2023/12/19 04:31:16;;;;;;;7.55;3.70;;;;;;;;;;4116927;28;20050;-81
2023/12/19 04:33:18;;;;;;;7.55;3.58;;;;;;;;;;4117119;28;20133;-80
2023/12/19 04:35:19;;;;;;;7.97;3.80;;;;;;;;;;4116719;28;20492;-81
2023/12/19 04:37:20;;;;;;;8.13;3.80;;;;;;;;;;4121456;28;20050;-81
2023/12/19 04:39:21;;;;;;;7.28;3.70;;;;;;;;;;4133228;28;20077;-80
2023/12/19 04:41:22;;;;;;;6.80;3.53;;;;;;;;;;4119362;28;20043;-80
2023/12/19 04:43:24;;;;;;;7.53;3.60;;;;;;;;;;4116283;28;20515;-80
2023/12/19 04:45:25;;;;;;;6.13;2.95;;;;;;;;;;4116470;28;20102;-80
2023/12/19 04:47:26;;;;;;;7.32;3.92;;;;;;;;;;4122298;28;20558;-81
2023/12/19 04:49:27;;;;;;;6.57;3.70;;;;;;;;;;4132995;28;20046;-81
2023/12/19 04:51:28;;;;;;;6.95;3.30;;;;;;;;;;4132708;28;20073;-81
2023/12/19 04:53:30;;;;;;;5.03;3.13;;;;;;;;;;4132548;28;20057;-81
2023/12/19 04:55:31;;;;;;;6.40;3.65;;;;;;;;;;4132770;28;20057;-81
2023/12/19 04:57:33;;;;;;;6.85;3.10;;;;;;;;;;4133007;28;20038;-81
2023/12/19 04:59:35;;;;;;;5.75;2.88;;;;;;;;;;4132860;28;20050;-80
2023/12/19 05:01:40;;;;;;;6.80;3.50;;;;;;;;;;4131513;28;20065;-81
2023/12/19 05:03:41;;;;;;;7.70;3.58;;;;;;;;;;4116205;28;20507;-81
2023/12/19 05:05:42;;;;;;;7.82;3.65;;;;;;;;;;4116217;28;20113;-81
2023/12/19 05:07:44;;;;;;;7.13;3.40;;;;;;;;;;4116489;28;20122;-80
2023/12/19 05:09:45;;;;;;;9.77;3.65;;;;;;;;;;4116080;28;20053;-81
2023/12/19 05:11:47;;;;;;;7.32;3.55;;;;;;;;;;4116198;28;20070;-81
2023/12/19 05:13:49;;;;;;;6.75;3.38;;;;;;;;;;4131306;28;20169;-80
2023/12/19 05:15:50;;;;;;;6.43;3.30;;;;;;;;;;4115649;28;20051;-81
2023/12/19 05:17:51;;;;;;;5.60;2.72;;;;;;;;;;4116272;28;20058;-81
2023/12/19 05:19:52;;;;;;;5.85;2.88;;;;;;;;;;4115992;28;20483;-81
2023/12/19 05:21:53;;;;;;;6.18;3.25;;;;;;;;;;4116108;28;20046;-81
2023/12/19 05:23:54;;;;;;;6.25;3.13;;;;;;;;;;4116066;28;20395;-81
2023/12/19 05:25:56;;;;;;;4.53;2.63;;;;;;;;;;4116193;28;20047;-80
2023/12/19 05:27:57;;;;;;;5.38;2.72;;;;;;;;;;4115273;28;20501;-80
2023/12/19 05:29:58;;;;;;;6.47;2.60;;;;;;;;;;4115794;28;20046;-81
2023/12/19 05:31:59;;;;;;;5.72;3.00;;;;;;;;;;4128203;28;20125;-80
2023/12/19 05:34:01;;;;;;;6.15;2.92;;;;;;;;;;4132197;28;20038;-81
2023/12/19 05:36:02;;;;;;;6.20;3.30;;;;;;;;;;4132041;28;20046;-80
2023/12/19 05:38:03;;;;;;;6.30;2.67;;;;;;;;;;4132368;28;20054;-81
2023/12/19 05:40:04;;;;;;;6.07;2.88;;;;;;;;;;4121116;28;20047;-81
2023/12/19 05:42:05;;;;;;;5.22;3.20;;;;;;;;;;4116218;28;20480;-81
2023/12/19 05:44:07;;;;;;;4.03;2.45;;;;;;;;;;4115342;28;20380;-80
2023/12/19 05:46:08;;;;;;;5.80;2.58;;;;;;;;;;4124902;28;20022;-81
2023/12/19 05:48:09;;;;;;;5.47;2.65;;;;;;;;;;4120249;28;20054;-81
2023/12/19 05:50:10;;;;;;;5.32;2.92;;;;;;;;;;4119673;28;20411;-80
2023/12/19 05:52:11;;;;;;;5.70;2.35;;;;;;;;;;4119721;28;20503;-81
2023/12/19 05:54:12;;;;;;;5.57;2.85;;;;;;;;;;4120334;28;20046;-81
2023/12/19 05:56:13;;;;;;;4.97;2.70;;;;;;;;;;4120186;28;20043;-81
2023/12/19 05:58:14;;;;;;;4.88;2.67;;;;;;;;;;4128695;28;20047;-81
2023/12/19 06:00:17;;;;;;;4.10;2.20;;;;;;;;;;4134062;28;20204;-81
2023/12/19 06:02:21;;;;;;;5.22;2.78;;;;;;;;;;4118011;28;20129;-81
2023/12/19 06:04:22;;;;;;;5.90;2.83;;;;;;;;;;4116269;28;20050;-81
2023/12/19 06:06:24;;;;;;;5.35;2.22;;;;;;;;;;4116156;28;20050;-81
2023/12/19 06:08:25;;;;;;;4.57;2.35;;;;;;;;;;4131303;28;20492;-81
2023/12/19 06:10:26;;;;;;;4.72;2.22;;;;;;;;;;4116236;28;20070;-81
2023/12/19 06:12:27;;;;;;;5.88;2.92;;;;;;;;;;4116251;28;20046;-81
2023/12/19 06:14:28;;;;;;;5.13;2.58;;;;;;;;;;4115760;28;20570;-81
2023/12/19 06:16:29;;;;;;;6.35;2.45;;;;;;;;;;4115432;28;20093;-81
2023/12/19 06:18:30;;;;;;;6.15;2.47;;;;;;;;;;4115461;28;20047;-81
2023/12/19 06:20:31;;;;;;;5.15;2.60;;;;;;;;;;4115710;28;20480;-81
2023/12/19 06:22:32;;;;;;;4.43;2.42;;;;;;;;;;4115918;28;20451;-81
2023/12/19 06:24:33;;;;;;;5.35;2.28;;;;;;;;;;4115663;28;20042;-80
2023/12/19 06:26:34;;;;;;;6.00;2.67;;;;;;;;;;4115667;28;20043;-81
2023/12/19 06:28:35;;;;;;;4.78;2.75;;;;;;;;;;4113943;28;20043;-81
2023/12/19 06:30:37;;;;;;;5.60;2.70;;;;;;;;;;4115848;28;20047;-81
2023/12/19 06:32:40;;;;;;;5.53;3.22;;;;;;;;;;4116518;28;20054;-81
2023/12/19 06:34:41;;;;;;;5.25;2.53;;;;;;;;;;4118753;28;20043;-81
2023/12/19 06:36:43;;;;;;;4.22;2.45;;;;;;;;;;4118766;28;20054;-81
2023/12/19 06:38:44;;;;;;;5.68;2.55;;;;;;;;;;4118719;28;20057;-81
2023/12/19 06:40:46;;;;;;;4.85;2.22;;;;;;;;;;4118862;28;20113;-81
2023/12/19 06:42:47;;;;;;;3.97;2.15;;;;;;;;;;4117830;28;20105;-81
2023/12/19 06:44:48;;;;;;;5.88;3.15;;;;;;;;;;4117776;28;20053;-81
2023/12/19 06:46:52;;;;;;;5.53;2.67;;;;;;;;;;4132993;28;20039;-81
2023/12/19 06:48:54;;;;;;;5.32;2.97;;;;;;;;;;4134827;28;20061;-81
2023/12/19 06:50:55;;;;;;;5.50;3.10;;;;;;;;;;4134821;28;20051;-81
2023/12/19 06:52:56;;;;;;;6.43;3.78;;;;;;;;;;4149460;28;20099;-81
2023/12/19 06:54:57;;;;;;;4.93;2.72;;;;;;;;;;4134491;28;20046;-81
2023/12/19 06:56:58;;;;;;;5.78;2.78;;;;;;;;;;4134057;28;20133;-81
2023/12/19 06:59:01;;;;;;;6.13;3.08;;;;;;;;;;4148392;28;20050;-81
2023/12/19 07:01:02;;;;;;;7.97;3.08;;;;;;;;;;4134806;28;20045;-81
2023/12/19 07:03:03;;;;;;;7.97;3.15;;;;;;;;;;4134438;28;20050;-81
2023/12/19 07:05:05;;;;;;;5.30;2.70;;;;;;;;;;4119665;28;20038;-81
2023/12/19 07:07:06;;;;;;;7.00;3.05;;;;;;;;;;4118318;28;20046;-81
2023/12/19 07:09:07;;;;;;;5.68;3.05;;;;;;;;;;4118077;28;20054;-81
2023/12/19 07:11:09;;;;;;;6.75;3.25;;;;;;;;;;4118172;28;20054;-81
2023/12/19 07:13:11;;;;;;;6.03;3.03;;;;;;;;;;4117913;28;20058;-81
2023/12/19 07:15:12;;;;;;;4.70;2.90;;;;;;;;;;4118060;28;20108;-81
2023/12/19 07:17:13;;;;;;;6.20;3.20;;;;;;;;;;4118249;28;20458;-81
2023/12/19 07:19:15;;;;;;;6.90;3.00;;;;;;;;;;4118164;28;20122;-82
2023/12/19 07:21:22;;;;;;;7.07;3.28;;;;;;;;;;4116989;28;20046;-83
2023/12/19 07:23:23;;;;;;;4.70;2.65;;;;;;;;;;4117994;28;20082;-82
2023/12/19 07:25:24;;;;;;;5.85;2.67;;;;;;;;;;4117581;28;20050;-80
2023/12/19 07:27:25;;;;;;;5.07;2.60;;;;;;;;;;4118006;28;20385;-79
2023/12/19 07:29:27;;;;;;;4.57;2.70;;;;;;;;;;4122718;28;20169;-80
2023/12/19 07:31:29;;;;;;;5.90;2.90;;;;;;;;;;4116297;28;20447;-80
2023/12/19 07:33:30;;;;;;;8.10;2.92;;;;;;;;;;4117946;28;20042;-80
2023/12/19 07:35:31;;;;;;;4.45;2.20;;;;;;;;;;4117874;28;20507;-80
2023/12/19 07:37:32;;;;;;;6.10;3.10;;;;;;;;;;4117303;28;20133;-81
2023/12/19 07:39:33;;;;;;;5.15;2.83;;;;;;;;;;4115310;28;20043;-81
2023/12/19 07:41:34;;;;;;;5.15;2.70;;;;;;;;;;4117391;28;20049;-81
2023/12/19 07:43:35;;;;;;;4.53;2.83;;;;;;;;;;4116531;28;20054;-81
2023/12/19 07:45:36;;;;;;;5.07;2.65;;;;;;;;;;4132210;28;20427;-81
2023/12/19 07:47:37;;;;;;;7.05;2.72;;;;;;;;;;4115431;28;20268;-81
2023/12/19 07:49:38;;;;;;;6.30;2.60;;;;;;;;;;4116989;28;20050;-81
2023/12/19 07:51:40;;;;;;;3.88;2.17;;;;;;;;;;4117609;28;20503;-81
2023/12/19 07:53:42;;;;;;;3.28;2.20;;;;;;;;;;4117529;28;20077;-81
2023/12/19 07:55:44;;;;;;;5.38;2.58;;;;;;;;;;4117568;28;20462;-81
2023/12/19 07:57:45;;;;;;;5.60;2.42;;;;;;;;;;4117613;28;20046;-81
2023/12/19 07:59:46;;;;;;;4.82;2.10;;;;;;;;;;4117854;28;20053;-81
2023/12/19 08:01:51;;;;;;;5.07;2.33;;;;;;;;;;4116556;28;20086;-80
2023/12/19 08:03:52;;;;;;;4.80;2.40;;;;;;;;;;4118680;28;20101;-80
2023/12/19 08:05:54;;;;;;;3.60;2.13;;;;;;;;;;4118852;28;20038;-80
2023/12/19 08:07:55;;;;;;;3.88;1.92;;;;;;;;;;4118325;28;20074;-80
2023/12/19 08:09:56;;;;;;;3.53;1.92;;;;;;;;;;4117726;28;20053;-80
2023/12/19 08:11:58;;;;;;;4.95;2.80;;;;;;;;;;4117038;28;20554;-80
2023/12/19 08:13:59;;;;;;;5.03;2.22;;;;;;;;;;4117770;28;20058;-80
2023/12/19 08:16:00;;;;;;;3.67;2.10;;;;;;;;;;4117660;28;20063;-80
2023/12/19 08:18:02;;;;;;;4.68;2.33;;;;;;;;;;4119272;28;20058;-80
2023/12/19 08:20:04;;;;;;;4.20;2.10;;;;;;;;;;4122128;28;20039;-80
2023/12/19 08:22:05;;;;;;;5.28;2.33;;;;;;;;;;4118710;28;20116;-80
2023/12/19 08:24:06;;;;;;;5.28;2.47;;;;;;;;;;4119352;28;20149;-80
2023/12/19 08:26:10;;;;;;;3.88;2.15;;;;;;;;;;4129057;28;20023;-79
2023/12/19 08:28:11;;;;;;;4.40;2.10;;;;;;;;;;4130023;28;20043;-81
2023/12/19 08:30:12;;;;;;;3.80;2.45;;;;;;;;;;4119539;28;20051;-80
2023/12/19 08:32:13;;;;;;;3.90;2.30;;;;;;;;;;4117285;28;20051;-80
2023/12/19 08:34:17;;;;;;;4.43;2.30;;;;;;;;;;4117944;28;20047;-81
2023/12/19 08:36:18;;;;;;;3.97;2.13;;;;;;;;;;4117836;28;20054;-80
2023/12/19 08:38:19;;;;;;;3.72;2.28;;;;;;;;;;4118069;28;20050;-81
2023/12/19 08:40:20;;;;;;;4.45;2.15;;;;;;;;;;4117826;28;20415;-81
2023/12/19 08:42:21;;;;;;;4.28;2.20;;;;;;;;;;4116552;28;20042;-81
2023/12/19 08:44:22;;;;;;;5.45;2.67;;;;;;;;;;4116488;28;20135;-81
2023/12/19 08:46:24;;;;;;;5.20;2.35;;;;;;;;;;4116472;28;20054;-81
2023/12/19 08:48:25;;;;;;;4.18;2.28;;;;;;;;;;4116628;28;20054;-81
2023/12/19 08:50:26;;;;;;;6.28;2.60;;;;;;;;;;4117535;28;20097;-81
2023/12/19 08:52:28;;;;;;;5.50;2.70;;;;;;;;;;4116813;28;20051;-81
2023/12/19 08:54:29;;;;;;;4.38;2.33;;;;;;;;;;4116404;28;20492;-81
2023/12/19 08:56:30;;;;;;;4.50;2.30;;;;;;;;;;4117273;28;20043;-81
2023/12/19 08:58:31;;;;;;;5.30;2.45;;;;;;;;;;4117943;28;20076;-80
2023/12/19 09:00:32;;;;;;;5.43;3.00;;;;;;;;;;4118208;28;20050;-81
2023/12/19 09:02:33;;;;;;;5.72;2.60;;;;;;;;;;4117510;28;20047;-80
2023/12/19 09:04:35;;;;;;;6.30;3.42;;;;;;;;;;4121472;28;20097;-80
2023/12/19 09:06:36;;;;;;;7.70;3.30;;;;;;;;;;4120058;28;20118;-80
2023/12/19 09:08:37;;;;;;;6.70;3.78;;;;;;;;;;4119458;28;20097;-81
2023/12/19 09:10:38;;;;;;;7.75;3.80;;;;;;;;;;4122377;28;20058;-80
2023/12/19 09:12:39;;;;;;;6.63;3.60;;;;;;;;;;4135116;28;20054;-79
2023/12/19 09:14:41;;;;;;;8.27;4.07;;;;;;;;;;4118420;28;20079;-80
2023/12/19 09:16:43;;;;;;;5.97;3.20;;;;;;;;;;4117447;28;20500;-80
2023/12/19 09:18:44;;;;;;;6.95;3.80;;;;;;;;;;4117298;28;20058;-79
2023/12/19 09:20:45;;;;;;;6.50;3.72;;;;;;;;;;4123353;28;20047;-81
2023/12/19 09:22:46;;;;;;;7.70;3.80;;;;;;;;;;4120715;28;20047;-80
2023/12/19 09:24:47;;;;;;;6.88;3.70;;;;;;;;;;4120062;28;20054;-80
2023/12/19 09:26:48;;;;;;;7.78;4.13;;;;;;;;;;4119640;28;20062;-80
2023/12/19 09:28:49;;;;;;;7.68;3.35;;;;;;;;;;4118678;28;20051;-80
2023/12/19 09:30:51;;;;;;;8.93;4.38;;;;;;;;;;4119380;28;20053;-80
2023/12/19 09:32:52;;;;;;;8.43;4.38;;;;;;;;;;4119441;28;20484;-80
2023/12/19 09:34:54;;;;;;;6.57;3.95;;;;;;;;;;4118587;28;20051;-81
2023/12/19 09:36:56;;;;;;;7.88;3.92;;;;;;;;;;4118383;28;20400;-80
2023/12/19 09:38:58;;;;;;;6.07;3.55;;;;;;;;;;4116440;28;20046;-80
2023/12/19 09:40:59;;;;;;;8.13;3.97;;;;;;;;;;4116168;28;20038;-81
2023/12/19 09:43:00;;;;;;;8.15;3.90;;;;;;;;;;4115438;28;20093;-81
2023/12/19 09:45:02;;;;;;;9.23;4.57;;;;;;;;;;4116174;28;20065;-81
2023/12/19 09:47:03;;;;;;;8.88;4.30;;;;;;;;;;4116221;28;20042;-81
2023/12/19 09:49:04;;;;;;;8.63;3.83;;;;;;;;;;4109768;28;20046;-81
2023/12/19 09:51:06;;;;;;;9.63;4.13;;;;;;;;;;4115837;28;20078;-80
2023/12/19 09:53:09;;;;;;;7.10;3.80;;;;;;;;;;4116197;28;20051;-81
2023/12/19 09:55:10;;;;;;;6.75;3.47;;;;;;;;;;4116665;28;20046;-81
2023/12/19 09:57:13;;;;;;;8.95;3.90;;;;;;;;;;4116864;28;20075;-81
2023/12/19 09:59:16;;;;;;;8.55;3.80;;;;;;;;;;4117045;28;20054;-81
2023/12/19 10:01:17;;;;;;;7.88;4.15;;;;;;;;;;4116740;28;20055;-80
2023/12/19 10:03:19;;;;;;;6.90;3.83;;;;;;;;;;4114671;28;20841;-80
2023/12/19 10:05:20;;;;;;;6.55;3.83;;;;;;;;;;4115306;28;20584;-80
2023/12/19 10:07:21;;;;;;;7.43;4.10;;;;;;;;;;4116119;28;20134;-80
2023/12/19 10:09:23;;;;;;;6.28;3.70;;;;;;;;;;4119900;28;20055;-80
2023/12/19 10:11:25;;;;;;;6.28;3.60;;;;;;;;;;4119600;28;20039;-80
2023/12/19 10:13:33;;;;;;;6.78;3.75;;;;;;;;;;4119632;28;20101;-80
2023/12/19 10:15:34;;;;;;;7.80;3.60;;;;;;;;;;4117997;28;20051;-81
2023/12/19 10:17:37;;;;;;;8.18;3.88;;;;;;;;;;4119073;28;20055;-80
2023/12/19 10:19:38;;;;;;;8.30;3.45;;;;;;;;;;4117856;28;20043;-81
2023/12/19 10:21:39;;;;;;;6.35;3.17;;;;;;;;;;4118213;28;20127;-80
2023/12/19 10:23:41;;;;;;;5.57;3.00;;;;;;;;;;4119336;28;20518;-81
2023/12/19 10:25:42;;;;;;;6.78;3.67;;;;;;;;;;4119641;28;20129;-80
2023/12/19 10:27:45;;;;;;;6.13;3.22;;;;;;;;;;4119331;28;20065;-81
2023/12/19 10:29:46;;;;;;;7.35;3.25;;;;;;;;;;4119819;28;20051;-81
2023/12/19 10:31:47;;;;;;;8.77;3.17;;;;;;;;;;4116565;28;20057;-81
2023/12/19 10:33:49;;;;;;;6.53;3.65;;;;;;;;;;4118886;28;20396;-81
2023/12/19 10:35:50;;;;;;;5.72;3.20;;;;;;;;;;4119414;28;20126;-80
2023/12/19 10:37:52;;;;;;;5.65;3.58;;;;;;;;;;4118391;28;20039;-81
2023/12/19 10:40:09;;;;;;;6.80;3.60;;;;;;;;;;4118999;28;20051;-80
2023/12/19 10:42:11;;;;;;;6.78;3.40;;;;;;;;;;4115516;28;20074;-80
2023/12/19 10:44:12;;;;;;;5.95;3.22;;;;;;;;;;4118968;28;20051;-80
2023/12/19 10:46:15;;;;;;;5.85;3.33;;;;;;;;;;4117935;28;20047;-80
2023/12/19 10:48:16;;;;;;;7.10;3.20;;;;;;;;;;4118003;28;20059;-80
2023/12/19 10:50:17;;;;;;;5.60;3.30;;;;;;;;;;4118581;28;20109;-80
2023/12/19 10:52:20;;;;;;;6.53;3.33;;;;;;;;;;4117916;28;20065;-80
2023/12/19 10:54:22;;;;;;;8.80;4.00;;;;;;;;;;4118781;28;20107;-80
2023/12/19 10:56:24;;;;;;;7.63;3.90;;;;;;;;;;4118114;28;20047;-80
2023/12/19 10:58:26;;;;;;;6.60;3.75;;;;;;;;;;4118472;28;20492;-81
2023/12/19 11:00:30;;;;;;;6.97;3.70;;;;;;;;;;4117979;28;20051;-81
2023/12/19 11:02:37;;;;;;;8.13;3.80;;;;;;;;;;4115073;28;20174;-81
2023/12/19 11:04:42;;;;;;;6.60;3.13;;;;;;;;;;4117943;28;20061;-81
2023/12/19 11:06:46;;;;;;;6.88;3.42;;;;;;;;;;4117721;28;20125;-81
2023/12/19 11:08:48;;;;;;;7.82;3.75;;;;;;;;;;4118092;28;20049;-81
2023/12/19 11:10:54;;;;;;;7.68;3.92;;;;;;;;;;4117123;28;20051;-81
2023/12/19 11:12:55;;;;;;;8.07;3.78;;;;;;;;;;4118223;28;20137;-81
2023/12/19 11:14:56;;;;;;;8.32;3.70;;;;;;;;;;4118291;28;20125;-81
2023/12/19 11:17:00;;;;;;;7.50;4.00;;;;;;;;;;4117130;28;20117;-81
2023/12/19 11:19:22;;;;;;;8.10;3.50;;;;;;;;;;4117950;28;20093;-81
2023/12/19 11:21:27;;;;;;;7.03;3.58;;;;;;;;;;4116179;28;20039;-81
2023/12/19 11:23:28;;;;;;;8.60;3.92;;;;;;;;;;4118367;28;20089;-81
2023/12/19 11:25:34;;;;;;;7.22;3.20;;;;;;;;;;4118501;28;20042;-81
2023/12/19 11:27:56;;;;;;;7.72;3.67;;;;;;;;;;4118027;28;20046;-81
2023/12/19 11:29:58;;;;;;;10.27;4.10;;;;;;;;;;4117102;28;20523;-81
2023/12/19 11:31:59;;;;;;;9.07;4.22;;;;;;;;;;4117664;28;20650;-81
2023/12/19 11:34:01;;;;;;;8.50;4.72;;;;;;;;;;4117627;28;20051;-81
2023/12/19 11:36:11;;;;;;;8.25;4.45;;;;;;;;;;4117656;28;20050;-80
2023/12/19 11:38:24;;;;;;;10.90;4.10;;;;;;;;;;4117451;28;20050;-81
2023/12/19 11:40:44;;;;;;;9.85;4.30;;;;;;;;;;4117605;28;20057;-81
2023/12/19 11:42:46;;;;;;;8.55;4.40;;;;;;;;;;4116870;28;20042;-81
2023/12/19 11:44:47;;;;;;;8.13;4.32;;;;;;;;;;4117117;28;20066;-81
2023/12/19 11:46:48;;;;;;;8.07;4.40;;;;;;;;;;4117463;28;20051;-81
2023/12/19 11:48:52;;;;;;;8.50;4.47;;;;;;;;;;4117532;28;20484;-81
2023/12/19 11:50:53;;;;;;;8.77;4.18;;;;;;;;;;4117552;28;20042;-81
2023/12/19 11:52:55;;;;;;;7.30;4.13;;;;;;;;;;4117428;28;20587;-81
2023/12/19 11:54:56;;;;;;;9.35;4.82;;;;;;;;;;4116687;28;20108;-80
2023/12/19 11:56:59;;;;;;;8.68;4.95;;;;;;;;;;4117309;28;20054;-81
2023/12/19 11:59:00;;;;;;;11.35;4.68;;;;;;;;;;4116941;28;20043;-80
2023/12/19 12:01:02;;;;;;;7.28;3.88;;;;;;;;;;4116064;28;20122;-81
2023/12/19 12:03:10;;;;;;;8.50;4.43;;;;;;;;;;4118048;28;20047;-80
2023/12/19 12:05:13;;;;;;;9.43;4.80;;;;;;;;;;4118042;28;20050;-81